Mont Saint Michel — FNMT — position and weather

sailwx.info

Track history (hours):
 
Tides and Currents Weather Stations Pressure Air Temp Water Temp Dewpoint Dewpoint Depression Visibility Wind Speed Wind Dir Waves Ship Positions

Mont Saint Michel

Last reported at 2017-Dec-11 16:21 UTC. Time now 2017-Dec-12 04:24 UTC.
Position N 50°24' W 000°47'.

Length 173 m; beam 29 m.

Type: Ship. MMSI: 227023100.

Date/timePositionNaut miles runAvg speedWind from/ knotsBaromVisibWave heightAir tempDewpointWater temp
2017-Dec-11 16:21N 50°24' W 000°47'720.5
2017-Dec-11 16:01N 50°30' W 000°51'1020.5
2017-Dec-11 15:30N 50°39' W 000°59'918.0
2017-Dec-11 15:01N 50°47' W 001°06'2 3.8
2017-Dec-11 14:30N 50°49' W 001°06'0 0.0
2017-Dec-11 14:01N 50°49' W 001°06'0 0.0
2017-Dec-11 13:31N 50°49' W 001°06'4 8.2
2017-Dec-11 13:00N 50°45' W 001°05'815.1
2017-Dec-11 12:30N 50°38' W 000°59'919.0
2017-Dec-11 12:01N 50°29' W 001°00'1717.9
2017-Dec-11 11:02N 50°11' W 000°56'117.6
2017-Dec-11 11:00N 50°11' W 000°56'816.1
2017-Dec-11 10:31N 50°04' W 000°49'816.7
2017-Dec-11 10:00N 49°57' W 000°43'917.6
2017-Dec-11 09:31N 49°49' W 000°36'917.7
2017-Dec-11 09:00N 49°41' W 000°30'1019.1
2017-Dec-11 08:30N 49°33' W 000°22'1019.4
2017-Dec-11 08:00N 49°24' W 000°16'713.8
2017-Dec-11 07:30N 49°17' W 000°15'0 0.0
2017-Dec-11 07:01N 49°17' W 000°15'0 0.0
2017-Dec-11 06:31N 49°17' W 000°15'0 0.0
2017-Dec-11 06:01N 49°17' W 000°15'0 0.2
2017-Dec-11 05:30N 49°17' W 000°15'713.4
2017-Dec-11 05:01N 49°24' W 000°16'714.9
2017-Dec-11 04:31N 49°31' W 000°21'714.7
2017-Dec-11 04:00N 49°38' W 000°25'714.8
2017-Dec-11 03:31N 49°45' W 000°28'715.0
2017-Dec-11 03:01N 49°52' W 000°32'815.0
2017-Dec-11 02:31N 49°59' W 000°37'815.0
2017-Dec-11 02:01N 50°06' W 000°40'1916.4
2017-Dec-11 00:52N 50°23' W 000°51'617.6
2017-Dec-11 00:31N 50°29' W 000°55'917.4
2017-Dec-11 00:01N 50°37' W 000°59'714.4
2017-Dec-10 23:31N 50°44' W 001°03'510.2
2017-Dec-10 23:00N 50°49' W 001°06'0 0.4
2017-Dec-10 22:31N 50°49' W 001°06'0 0.0
2017-Dec-10 22:01N 50°49' W 001°06'0 0.0
2017-Dec-10 21:30N 50°49' W 001°06'2 4.1
2017-Dec-10 21:00N 50°47' W 001°06'611.7
2017-Dec-10 20:31N 50°43' W 000°59'815.4
2017-Dec-10 20:00N 50°35' W 000°57'918.4
2017-Dec-10 19:30N 50°26' W 000°53'1219.0
2017-Dec-10 18:51N 50°14' W 000°47'720.0
2017-Dec-10 18:31N 50°08' W 000°44'1019.5
2017-Dec-10 18:01N 49°58' W 000°40'1019.1
2017-Dec-10 17:31N 49°49' W 000°37'1019.3
2017-Dec-10 17:00N 49°40' W 000°34'1019.6
2017-Dec-10 16:31N 49°31' W 000°27'1019.3
2017-Dec-10 16:01N 49°23' W 000°17'612.5
2017-Dec-10 15:30N 49°17' W 000°15'0 0.0
2017-Dec-10 15:00N 49°17' W 000°15'0 0.0
2017-Dec-10 14:31N 49°17' W 000°15'0 0.0
2017-Dec-10 14:01N 49°17' W 000°15'4 8.2
2017-Dec-10 13:30N 49°21' W 000°14'1019.6
2017-Dec-10 13:00N 49°31' W 000°16'918.9
2017-Dec-10 12:30N 49°40' W 000°19'1019.1
2017-Dec-10 12:00N 49°50' W 000°21'1019.4
2017-Dec-10 11:30N 49°59' W 000°26'1019.7
2017-Dec-10 11:00N 50°08' W 000°33'1419.4
2017-Dec-10 10:15N 50°20' W 000°45'519.3
2017-Dec-10 09:59N 50°25' W 000°49'919.3
2017-Dec-10 09:30N 50°33' W 000°55'918.3
2017-Dec-10 09:00N 50°42' W 000°58'815.9
2017-Dec-10 08:31N 50°48' W 001°07'1 2.2
2017-Dec-10 08:01N 50°49' W 001°06'0 0.0
2017-Dec-10 07:31N 50°49' W 001°06'0 0.0
2017-Dec-10 07:01N 50°49' W 001°06'0 0.2
2017-Dec-10 06:31N 50°49' W 001°06'4 8.6
2017-Dec-10 06:01N 50°44' W 001°05'1019.2
2017-Dec-10 05:30N 50°36' W 000°57'815.6
2017-Dec-10 05:00N 50°29' W 000°53'612.3
2017-Dec-10 04:30N 50°23' W 000°50'1112.2
2017-Dec-10 03:34N 50°13' W 000°42'111.9
2017-Dec-10 03:29N 50°12' W 000°41'611.8
2017-Dec-10 03:00N 50°07' W 000°38'611.4
2017-Dec-10 02:30N 50°01' W 000°34'611.4
2017-Dec-10 02:00N 49°56' W 000°31'611.5
2017-Dec-10 01:30N 49°50' W 000°29'611.4
2017-Dec-10 01:00N 49°45' W 000°26'611.4
2017-Dec-10 00:30N 49°40' W 000°23'611.4
2017-Dec-10 00:00N 49°34' W 000°21'611.2
2017-Dec-09 23:30N 49°29' W 000°18'611.0
2017-Dec-09 23:00N 49°23' W 000°16'611.4
2017-Dec-09 22:30N 49°18' W 000°15'0 1.0
2017-Dec-09 22:00N 49°17' W 000°15'0 0.0
2017-Dec-09 21:30N 49°17' W 000°15'0 0.0
2017-Dec-09 21:00N 49°17' W 000°15'0 0.0
2017-Dec-09 20:30N 49°17' W 000°15'2 4.9
2017-Dec-09 20:00N 49°20' W 000°14'917.8
2017-Dec-09 19:31N 49°28' W 000°17'918.7
2017-Dec-09 19:01N 49°37' W 000°22'816.6
2017-Dec-09 18:31N 49°45' W 000°27'815.3
2017-Dec-09 18:01N 49°52' W 000°31'917.1
2017-Dec-09 17:30N 50°00' W 000°36'918.6
2017-Dec-09 17:00N 50°09' W 000°39'1119.0
2017-Dec-09 16:26N 50°19' W 000°45'819.3
2017-Dec-09 16:00N 50°27' W 000°50'919.0
2017-Dec-09 15:31N 50°36' W 000°55'918.2
2017-Dec-09 15:00N 50°43' W 001°03'510.9
2017-Dec-09 14:30N 50°49' W 001°06'0 0.1
2017-Dec-09 14:00N 50°49' W 001°06'0 0.0
2017-Dec-09 13:31N 50°49' W 001°06'0 0.2
2017-Dec-09 13:01N 50°49' W 001°06'5 9.9
2017-Dec-09 12:30N 50°44' W 001°04'918.0
2017-Dec-09 12:00N 50°36' W 000°56'816.3
2017-Dec-09 11:31N 50°29' W 000°50'1315.4
2017-Dec-09 10:41N 50°17' W 000°42'315.2
2017-Dec-09 10:30N 50°15' W 000°41'1019.7
2017-Dec-09 10:00N 50°06' W 000°35'1020.0
2017-Dec-09 09:30N 49°56' W 000°32'1020.1
2017-Dec-09 09:00N 49°47' W 000°26'1019.9
2017-Dec-09 08:31N 49°37' W 000°23'1020.2
2017-Dec-09 08:00N 49°27' W 000°18'918.6
2017-Dec-09 07:31N 49°18' W 000°15'1 2.1
2017-Dec-09 07:01N 49°17' W 000°15'0 0.0
2017-Dec-09 06:31N 49°17' W 000°15'0 0.0
2017-Dec-09 06:00N 49°17' W 000°15'0 0.3
2017-Dec-09 05:30N 49°17' W 000°15'815.5
2017-Dec-09 05:00N 49°25' W 000°15'713.2
2017-Dec-09 04:30N 49°31' W 000°17'611.1
2017-Dec-09 04:00N 49°36' W 000°20'611.2
2017-Dec-09 03:31N 49°42' W 000°23'611.4
2017-Dec-09 03:01N 49°47' W 000°25'611.5
2017-Dec-09 02:30N 49°53' W 000°28'714.3
2017-Dec-09 02:00N 49°60' W 000°31'815.1
2017-Dec-09 01:30N 50°07' W 000°35'1714.7
2017-Dec-09 00:22N 50°22' W 000°45'514.5
2017-Dec-09 00:01N 50°27' W 000°49'714.9
2017-Dec-08 23:30N 50°34' W 000°54'714.6
2017-Dec-08 23:01N 50°40' W 000°58'713.7
2017-Dec-08 22:31N 50°45' W 001°05'3 6.6
2017-Dec-08 22:01N 50°49' W 001°06'0 0.0
2017-Dec-08 21:31N 50°49' W 001°06'0 0.0
2017-Dec-08 21:01N 50°49' W 001°06'0 0.0
2017-Dec-08 20:31N 50°49' W 001°06'0 0.0
2017-Dec-08 20:01N 50°49' W 001°06'0 0.0
2017-Dec-08 19:31N 50°49' W 001°06'0 0.4
2017-Dec-08 19:01N 50°49' W 001°06'510.4
2017-Dec-08 18:30N 50°44' W 001°03'815.9
2017-Dec-08 18:00N 50°37' W 000°58'1019.1
2017-Dec-08 17:30N 50°27' W 000°54'1618.5
2017-Dec-08 16:40N 50°12' W 000°48'318.3
2017-Dec-08 16:30N 50°10' W 000°46'918.5
2017-Dec-08 16:00N 50°01' W 000°41'918.8
2017-Dec-08 15:30N 49°53' W 000°35'918.5
2017-Dec-08 15:00N 49°44' W 000°29'917.7
2017-Dec-08 14:30N 49°36' W 000°24'816.9
2017-Dec-08 14:00N 49°28' W 000°18'816.0
2017-Dec-08 13:30N 49°21' W 000°15'3 6.7
2017-Dec-08 13:00N 49°17' W 000°15'0 0.0
2017-Dec-08 12:30N 49°17' W 000°15'0 0.0
2017-Dec-08 12:00N 49°17' W 000°15'0 0.0
2017-Dec-08 11:30N 49°17' W 000°15'0 0.0
2017-Dec-08 11:00N 49°17' W 000°15'0 0.0
2017-Dec-08 10:30N 49°17' W 000°15'0 0.0
2017-Dec-08 10:00N 49°17' W 000°15'0 0.1
2017-Dec-08 09:30N 49°17' W 000°15'0 0.0
2017-Dec-08 09:00N 49°17' W 000°15'0 0.1
2017-Dec-08 08:30N 49°17' W 000°15'0 0.0
2017-Dec-08 08:00N 49°17' W 000°15'0 0.0
2017-Dec-08 07:30N 49°17' W 000°15'0 0.0
2017-Dec-08 07:00N 49°17' W 000°15'0 0.0
2017-Dec-08 06:30N 49°17' W 000°15'2 3.7
2017-Dec-08 06:01N 49°19' W 000°15'714.5
2017-Dec-08 05:30N 49°26' W 000°17'713.4
2017-Dec-08 05:00N 49°32' W 000°21'713.4
2017-Dec-08 04:30N 49°39' W 000°25'713.2
2017-Dec-08 04:00N 49°45' W 000°29'713.2
2017-Dec-08 03:30N 49°51' W 000°32'713.8
2017-Dec-08 03:01N 49°58' W 000°36'714.4
2017-Dec-08 02:31N 50°04' W 000°39'1414.6
2017-Dec-08 01:31N 50°18' W 000°47'014.3
2017-Dec-08 01:30N 50°18' W 000°47'714.4
2017-Dec-08 01:00N 50°25' W 000°51'714.5
2017-Dec-08 00:31N 50°32' W 000°54'714.2
2017-Dec-08 00:00N 50°39' W 000°57'613.0
2017-Dec-07 23:30N 50°44' W 001°03'510.4
2017-Dec-07 23:00N 50°49' W 001°06'0 0.7
2017-Dec-07 22:30N 50°49' W 001°06'0 0.0
2017-Dec-07 22:00N 50°49' W 001°06'0 0.0
2017-Dec-07 21:31N 50°49' W 001°06'1 2.6
2017-Dec-07 21:00N 50°47' W 001°07'815.1
2017-Dec-07 20:30N 50°42' W 000°58'918.3
2017-Dec-07 20:00N 50°33' W 000°54'918.8
2017-Dec-07 19:30N 50°25' W 000°48'1018.7
2017-Dec-07 18:57N 50°15' W 000°44'819.2
2017-Dec-07 18:30N 50°07' W 000°39'1019.5
2017-Dec-07 18:00N 49°58' W 000°34'1019.5
2017-Dec-07 17:30N 49°49' W 000°27'1019.4
2017-Dec-07 17:00N 49°40' W 000°21'1019.5
2017-Dec-07 16:30N 49°31' W 000°16'1019.3
2017-Dec-07 16:00N 49°21' W 000°14'4 7.5
2017-Dec-07 15:30N 49°17' W 000°15'0 0.0
2017-Dec-07 15:00N 49°17' W 000°15'0 0.0
2017-Dec-07 14:30N 49°17' W 000°15'0 0.0
2017-Dec-07 14:00N 49°17' W 000°15'3 6.3
2017-Dec-07 13:31N 49°20' W 000°14'1019.8
2017-Dec-07 13:01N 49°29' W 000°21'1019.7
2017-Dec-07 12:31N 49°38' W 000°27'1119.5
2017-Dec-07 11:58N 49°48' W 000°33'919.5
2017-Dec-07 11:30N 49°57' W 000°38'1019.5
2017-Dec-07 11:01N 50°06' W 000°44'1618.6
2017-Dec-07 10:09N 50°20' W 000°53'318.1
2017-Dec-07 10:01N 50°23' W 000°55'917.6
2017-Dec-07 09:30N 50°32' W 000°56'917.6
2017-Dec-07 09:01N 50°40' W 000°58'816.0
2017-Dec-07 08:30N 50°47' W 001°06'2 4.2
2017-Dec-07 08:00N 50°49' W 001°06'0 0.0
2017-Dec-07 07:30N 50°49' W 001°06'0 0.0
2017-Dec-07 07:00N 50°49' W 001°06'1 1.3
2017-Dec-07 06:30N 50°49' W 001°07'613.0
2017-Dec-07 06:00N 50°43' W 001°01'816.4
2017-Dec-07 05:30N 50°36' W 000°55'815.1
2017-Dec-07 05:00N 50°28' W 000°53'510.8
2017-Dec-07 04:31N 50°23' W 000°50'1011.2
2017-Dec-07 03:38N 50°14' W 000°44'211.2
2017-Dec-07 03:29N 50°13' W 000°43'511.1
2017-Dec-07 03:01N 50°08' W 000°40'611.2
2017-Dec-07 02:31N 50°03' W 000°37'611.2
2017-Dec-07 02:01N 49°57' W 000°34'510.9
2017-Dec-07 01:31N 49°52' W 000°31'611.3
2017-Dec-07 01:01N 49°47' W 000°27'611.6
2017-Dec-07 00:31N 49°42' W 000°24'611.3
2017-Dec-07 00:01N 49°36' W 000°21'510.5
2017-Dec-06 23:31N 49°31' W 000°19'510.5
2017-Dec-06 23:01N 49°26' W 000°17'510.4
2017-Dec-06 22:31N 49°21' W 000°15'4 7.7
2017-Dec-06 22:01N 49°17' W 000°15'0 0.0
2017-Dec-06 21:31N 49°17' W 000°15'0 0.0
2017-Dec-06 21:01N 49°17' W 000°15'  
2017-Dec-04 10:30N 50°08' W 000°41'917.7
2017-Dec-04 10:00N 49°60' W 000°35'917.7
2017-Dec-04 09:31N 49°51' W 000°30'917.8
2017-Dec-04 09:00N 49°43' W 000°26'1019.9
2017-Dec-04 08:30N 49°34' W 000°20'1020.2
2017-Dec-04 08:00N 49°24' W 000°16'713.3
2017-Dec-04 07:30N 49°17' W 000°15'0 0.0
2017-Dec-04 07:00N 49°17' W 000°15'0 0.0
2017-Dec-04 06:30N 49°17' W 000°15'0 0.0
2017-Dec-04 06:00N 49°17' W 000°15'0 0.4
2017-Dec-04 05:30N 49°18' W 000°15'714.6
2017-Dec-04 05:01N 49°25' W 000°16'918.4
2017-Dec-04 04:31N 49°33' W 000°21'816.4
2017-Dec-04 04:00N 49°41' W 000°25'816.0
2017-Dec-04 03:31N 49°49' W 000°30'815.8
2017-Dec-04 03:01N 49°56' W 000°34'815.5
2017-Dec-04 02:31N 50°03' W 000°39'1815.8
2017-Dec-04 01:23N 50°20' W 000°49'616.2
2017-Dec-04 01:00N 50°25' W 000°51'815.6
2017-Dec-04 00:31N 50°33' W 000°55'815.5
2017-Dec-04 00:01N 50°40' W 001°00'714.1
2017-Dec-03 23:31N 50°46' W 001°06'3 5.1
2017-Dec-03 23:01N 50°49' W 001°06'0 0.0
2017-Dec-03 22:31N 50°49' W 001°06'0 0.0
2017-Dec-03 22:00N 50°49' W 001°06'0 0.0
2017-Dec-03 21:31N 50°49' W 001°06'0 0.6
2017-Dec-03 21:00N 50°49' W 001°06'611.6
2017-Dec-03 20:30N 50°43' W 001°02'1019.5
2017-Dec-03 20:00N 50°34' W 000°56'1019.5
2017-Dec-03 19:30N 50°26' W 000°50'1119.9
2017-Dec-03 18:58N 50°16' W 000°44'919.6
2017-Dec-03 18:30N 50°07' W 000°40'1019.5
2017-Dec-03 18:00N 49°57' W 000°36'918.2
2017-Dec-03 17:30N 49°49' W 000°32'918.1
2017-Dec-03 17:00N 49°40' W 000°27'918.4
2017-Dec-03 16:30N 49°32' W 000°21'918.7
2017-Dec-03 16:00N 49°23' W 000°16'611.8
2017-Dec-03 15:30N 49°17' W 000°15'0 0.1
2017-Dec-03 15:00N 49°17' W 000°15'0 0.0
2017-Dec-03 14:30N 49°17' W 000°15'0 0.0
2017-Dec-03 14:00N 49°17' W 000°15'611.5
2017-Dec-03 13:30N 49°23' W 000°15'1019.4
2017-Dec-03 13:00N 49°32' W 000°22'815.6
2017-Dec-03 12:30N 49°39' W 000°27'816.1
2017-Dec-03 12:01N 49°46' W 000°30'816.4
2017-Dec-03 11:31N 49°54' W 000°34'918.3
2017-Dec-03 11:00N 50°03' W 000°40'1019.8
2017-Dec-03 10:29N 50°13' W 000°45'1019.7
2017-Dec-03 10:00N 50°22' W 000°48'1020.1
2017-Dec-03 09:30N 50°31' W 000°54'1019.4
2017-Dec-03 09:01N 50°40' W 000°60'816.6
2017-Dec-03 08:30N 50°47' W 001°06'2 3.3
2017-Dec-03 08:01N 50°49' W 001°06'0 0.0
2017-Dec-03 07:30N 50°49' W 001°06'0 0.0
2017-Dec-03 07:00N 50°49' W 001°06'1 1.1
2017-Dec-03 06:30N 50°49' W 001°07'4 8.8
2017-Dec-03 06:00N 50°44' W 001°04'713.2
2017-Dec-03 05:30N 50°39' W 000°58'713.4
2017-Dec-03 05:00N 50°33' W 000°54'510.8
2017-Dec-03 04:30N 50°28' W 000°52'611.1
2017-Dec-03 03:59N 50°22' W 000°49'811.2
2017-Dec-03 03:14N 50°14' W 000°45'311.2
2017-Dec-03 02:57N 50°11' W 000°44'511.1
2017-Dec-03 02:30N 50°06' W 000°43'511.0
2017-Dec-03 02:00N 50°01' W 000°41'611.9
2017-Dec-03 01:30N 49°55' W 000°38'612.0
2017-Dec-03 01:00N 49°50' W 000°35'612.5
2017-Dec-03 00:30N 49°44' W 000°31'612.7
2017-Dec-03 00:00N 49°38' W 000°28'612.4
2017-Dec-02 23:30N 49°33' W 000°23'611.9
2017-Dec-02 23:00N 49°27' W 000°19'611.8
2017-Dec-02 22:30N 49°22' W 000°15'4 9.0
2017-Dec-02 22:00N 49°17' W 000°15'0 0.0
2017-Dec-02 21:30N 49°17' W 000°15'0 0.0
2017-Dec-02 21:00N 49°17' W 000°15'0 0.0
2017-Dec-02 20:30N 49°17' W 000°15'4 7.7
2017-Dec-02 20:01N 49°21' W 000°14'917.5
2017-Dec-02 19:30N 49°30' W 000°18'816.3
2017-Dec-02 19:01N 49°37' W 000°23'816.8
2017-Dec-02 18:30N 49°45' W 000°28'917.5
2017-Dec-02 18:01N 49°53' W 000°33'918.1
2017-Dec-02 17:30N 50°01' W 000°38'1917.5
2017-Dec-02 16:27N 50°19' W 000°48'819.4
2017-Dec-02 16:01N 50°27' W 000°52'1019.3
2017-Dec-02 15:31N 50°36' W 000°56'917.4
2017-Dec-02 15:01N 50°44' W 001°03'510.5
2017-Dec-02 14:31N 50°49' W 001°06'0 0.0
2017-Dec-02 14:00N 50°49' W 001°06'0 0.0
2017-Dec-02 13:30N 50°49' W 001°06'1 1.2
2017-Dec-02 13:01N 50°48' W 001°07'713.9
2017-Dec-02 12:31N 50°42' W 001°02'815.7
2017-Dec-02 12:00N 50°35' W 000°58'916.8
2017-Dec-02 11:30N 50°27' W 000°54'917.6
2017-Dec-02 11:00N 50°20' W 000°46'917.6
2017-Dec-02 10:30N 50°12' W 000°41'1019.1
2017-Dec-02 10:00N 50°03' W 000°35'918.8
2017-Dec-02 09:30N 49°54' W 000°31'918.8
2017-Dec-02 09:00N 49°45' W 000°26'918.7
2017-Dec-02 08:30N 49°36' W 000°23'918.8
2017-Dec-02 08:00N 49°27' W 000°18'918.0
2017-Dec-02 07:31N 49°18' W 000°15'1 1.6
2017-Dec-02 07:00N 49°17' W 000°15'0 0.0
2017-Dec-02 06:30N 49°17' W 000°15'0 0.0
2017-Dec-02 06:00N 49°17' W 000°15'0 0.1
2017-Dec-02 05:30N 49°17' W 000°15'714.7
2017-Dec-02 05:00N 49°25' W 000°17'816.7
2017-Dec-02 04:30N 49°32' W 000°22'816.4
2017-Dec-02 04:00N 49°40' W 000°26'815.3
2017-Dec-02 03:31N 49°47' W 000°31'612.0
2017-Dec-02 03:00N 49°52' W 000°35'611.5
2017-Dec-02 02:31N 49°57' W 000°39'611.2
2017-Dec-02 02:00N 50°02' W 000°43'2212.3
2017-Dec-02 00:14N 50°23' W 000°53'416.0
2017-Dec-02 00:00N 50°27' W 000°55'815.4
2017-Dec-01 23:30N 50°34' W 000°57'815.4
2017-Dec-01 23:01N 50°42' W 000°58'612.4
2017-Dec-01 22:30N 50°46' W 001°06'3 5.1
2017-Dec-01 22:00N 50°49' W 001°06'0 0.0
2017-Dec-01 21:30N 50°49' W 001°06'0 0.0
2017-Dec-01 21:00N 50°49' W 001°06'0 0.0
2017-Dec-01 20:30N 50°49' W 001°06'0 0.0
2017-Dec-01 20:00N 50°49' W 001°06'0 0.0
2017-Dec-01 19:30N 50°49' W 001°06'0 0.6
2017-Dec-01 19:00N 50°49' W 001°06'510.5
2017-Dec-01 18:31N 50°44' W 001°03'816.8
2017-Dec-01 18:01N 50°36' W 000°58'815.7
2017-Dec-01 17:30N 50°29' W 000°54'  
Track history (hours):
 
Tides and Currents Weather Stations Pressure Air Temp Water Temp Dewpoint Dewpoint Depression Visibility Wind Speed Wind Dir Waves Ship Positions

Mont Saint Michel

Last reported at 2017-Dec-11 16:21 UTC. Time now 2017-Dec-12 04:24 UTC.
Position N 50°24' W 000°47'.

Length 173 m; beam 29 m.

Type: Ship. MMSI: 227023100.

Date/timePositionNaut miles runAvg speedWind from/ knotsBaromVisibWave heightAir tempDewpointWater temp
2017-Dec-11 16:21N 50°24' W 000°47'720.5
2017-Dec-11 16:01N 50°30' W 000°51'1020.5
2017-Dec-11 15:30N 50°39' W 000°59'918.0
2017-Dec-11 15:01N 50°47' W 001°06'2 3.8
2017-Dec-11 14:30N 50°49' W 001°06'0 0.0
2017-Dec-11 14:01N 50°49' W 001°06'0 0.0
2017-Dec-11 13:31N 50°49' W 001°06'4 8.2
2017-Dec-11 13:00N 50°45' W 001°05'815.1
2017-Dec-11 12:30N 50°38' W 000°59'919.0
2017-Dec-11 12:01N 50°29' W 001°00'1717.9
2017-Dec-11 11:02N 50°11' W 000°56'117.6
2017-Dec-11 11:00N 50°11' W 000°56'816.1
2017-Dec-11 10:31N 50°04' W 000°49'816.7
2017-Dec-11 10:00N 49°57' W 000°43'917.6
2017-Dec-11 09:31N 49°49' W 000°36'917.7
2017-Dec-11 09:00N 49°41' W 000°30'1019.1
2017-Dec-11 08:30N 49°33' W 000°22'1019.4
2017-Dec-11 08:00N 49°24' W 000°16'713.8
2017-Dec-11 07:30N 49°17' W 000°15'0 0.0
2017-Dec-11 07:01N 49°17' W 000°15'0 0.0
2017-Dec-11 06:31N 49°17' W 000°15'0 0.0
2017-Dec-11 06:01N 49°17' W 000°15'0 0.2
2017-Dec-11 05:30N 49°17' W 000°15'713.4
2017-Dec-11 05:01N 49°24' W 000°16'714.9
2017-Dec-11 04:31N 49°31' W 000°21'714.7
2017-Dec-11 04:00N 49°38' W 000°25'714.8
2017-Dec-11 03:31N 49°45' W 000°28'715.0
2017-Dec-11 03:01N 49°52' W 000°32'815.0
2017-Dec-11 02:31N 49°59' W 000°37'815.0
2017-Dec-11 02:01N 50°06' W 000°40'1916.4
2017-Dec-11 00:52N 50°23' W 000°51'617.6
2017-Dec-11 00:31N 50°29' W 000°55'917.4
2017-Dec-11 00:01N 50°37' W 000°59'714.4
2017-Dec-10 23:31N 50°44' W 001°03'510.2
2017-Dec-10 23:00N 50°49' W 001°06'0 0.4
2017-Dec-10 22:31N 50°49' W 001°06'0 0.0
2017-Dec-10 22:01N 50°49' W 001°06'0 0.0
2017-Dec-10 21:30N 50°49' W 001°06'2 4.1
2017-Dec-10 21:00N 50°47' W 001°06'611.7
2017-Dec-10 20:31N 50°43' W 000°59'815.4
2017-Dec-10 20:00N 50°35' W 000°57'918.4
2017-Dec-10 19:30N 50°26' W 000°53'1219.0
2017-Dec-10 18:51N 50°14' W 000°47'720.0
2017-Dec-10 18:31N 50°08' W 000°44'1019.5
2017-Dec-10 18:01N 49°58' W 000°40'1019.1
2017-Dec-10 17:31N 49°49' W 000°37'1019.3
2017-Dec-10 17:00N 49°40' W 000°34'1019.6
2017-Dec-10 16:31N 49°31' W 000°27'1019.3
2017-Dec-10 16:01N 49°23' W 000°17'612.5
2017-Dec-10 15:30N 49°17' W 000°15'0 0.0
2017-Dec-10 15:00N 49°17' W 000°15'0 0.0
2017-Dec-10 14:31N 49°17' W 000°15'0 0.0
2017-Dec-10 14:01N 49°17' W 000°15'4 8.2
2017-Dec-10 13:30N 49°21' W 000°14'1019.6
2017-Dec-10 13:00N 49°31' W 000°16'918.9
2017-Dec-10 12:30N 49°40' W 000°19'1019.1
2017-Dec-10 12:00N 49°50' W 000°21'1019.4
2017-Dec-10 11:30N 49°59' W 000°26'1019.7
2017-Dec-10 11:00N 50°08' W 000°33'1419.4
2017-Dec-10 10:15N 50°20' W 000°45'519.3
2017-Dec-10 09:59N 50°25' W 000°49'919.3
2017-Dec-10 09:30N 50°33' W 000°55'918.3
2017-Dec-10 09:00N 50°42' W 000°58'815.9
2017-Dec-10 08:31N 50°48' W 001°07'1 2.2
2017-Dec-10 08:01N 50°49' W 001°06'0 0.0
2017-Dec-10 07:31N 50°49' W 001°06'0 0.0
2017-Dec-10 07:01N 50°49' W 001°06'0 0.2
2017-Dec-10 06:31N 50°49' W 001°06'4 8.6
2017-Dec-10 06:01N 50°44' W 001°05'1019.2
2017-Dec-10 05:30N 50°36' W 000°57'815.6
2017-Dec-10 05:00N 50°29' W 000°53'612.3
2017-Dec-10 04:30N 50°23' W 000°50'1112.2
2017-Dec-10 03:34N 50°13' W 000°42'111.9
2017-Dec-10 03:29N 50°12' W 000°41'611.8
2017-Dec-10 03:00N 50°07' W 000°38'611.4
2017-Dec-10 02:30N 50°01' W 000°34'611.4
2017-Dec-10 02:00N 49°56' W 000°31'611.5
2017-Dec-10 01:30N 49°50' W 000°29'611.4
2017-Dec-10 01:00N 49°45' W 000°26'611.4
2017-Dec-10 00:30N 49°40' W 000°23'611.4
2017-Dec-10 00:00N 49°34' W 000°21'611.2
2017-Dec-09 23:30N 49°29' W 000°18'611.0
2017-Dec-09 23:00N 49°23' W 000°16'611.4
2017-Dec-09 22:30N 49°18' W 000°15'0 1.0
2017-Dec-09 22:00N 49°17' W 000°15'0 0.0
2017-Dec-09 21:30N 49°17' W 000°15'0 0.0
2017-Dec-09 21:00N 49°17' W 000°15'0 0.0
2017-Dec-09 20:30N 49°17' W 000°15'2 4.9
2017-Dec-09 20:00N 49°20' W 000°14'917.8
2017-Dec-09 19:31N 49°28' W 000°17'918.7
2017-Dec-09 19:01N 49°37' W 000°22'816.6
2017-Dec-09 18:31N 49°45' W 000°27'815.3
2017-Dec-09 18:01N 49°52' W 000°31'917.1
2017-Dec-09 17:30N 50°00' W 000°36'918.6
2017-Dec-09 17:00N 50°09' W 000°39'1119.0
2017-Dec-09 16:26N 50°19' W 000°45'819.3
2017-Dec-09 16:00N 50°27' W 000°50'919.0
2017-Dec-09 15:31N 50°36' W 000°55'918.2
2017-Dec-09 15:00N 50°43' W 001°03'510.9
2017-Dec-09 14:30N 50°49' W 001°06'0 0.1
2017-Dec-09 14:00N 50°49' W 001°06'0 0.0
2017-Dec-09 13:31N 50°49' W 001°06'0 0.2
2017-Dec-09 13:01N 50°49' W 001°06'5 9.9
2017-Dec-09 12:30N 50°44' W 001°04'918.0
2017-Dec-09 12:00N 50°36' W 000°56'816.3
2017-Dec-09 11:31N 50°29' W 000°50'1315.4
2017-Dec-09 10:41N 50°17' W 000°42'315.2
2017-Dec-09 10:30N 50°15' W 000°41'1019.7
2017-Dec-09 10:00N 50°06' W 000°35'1020.0
2017-Dec-09 09:30N 49°56' W 000°32'1020.1
2017-Dec-09 09:00N 49°47' W 000°26'1019.9
2017-Dec-09 08:31N 49°37' W 000°23'1020.2
2017-Dec-09 08:00N 49°27' W 000°18'918.6
2017-Dec-09 07:31N 49°18' W 000°15'1 2.1
2017-Dec-09 07:01N 49°17' W 000°15'0 0.0
2017-Dec-09 06:31N 49°17' W 000°15'0 0.0
2017-Dec-09 06:00N 49°17' W 000°15'0 0.3
2017-Dec-09 05:30N 49°17' W 000°15'815.5
2017-Dec-09 05:00N 49°25' W 000°15'713.2
2017-Dec-09 04:30N 49°31' W 000°17'611.1
2017-Dec-09 04:00N 49°36' W 000°20'611.2
2017-Dec-09 03:31N 49°42' W 000°23'611.4
2017-Dec-09 03:01N 49°47' W 000°25'611.5
2017-Dec-09 02:30N 49°53' W 000°28'714.3
2017-Dec-09 02:00N 49°60' W 000°31'815.1
2017-Dec-09 01:30N 50°07' W 000°35'1714.7
2017-Dec-09 00:22N 50°22' W 000°45'514.5
2017-Dec-09 00:01N 50°27' W 000°49'714.9
2017-Dec-08 23:30N 50°34' W 000°54'714.6
2017-Dec-08 23:01N 50°40' W 000°58'713.7
2017-Dec-08 22:31N 50°45' W 001°05'3 6.6
2017-Dec-08 22:01N 50°49' W 001°06'0 0.0
2017-Dec-08 21:31N 50°49' W 001°06'0 0.0
2017-Dec-08 21:01N 50°49' W 001°06'0 0.0
2017-Dec-08 20:31N 50°49' W 001°06'0 0.0
2017-Dec-08 20:01N 50°49' W 001°06'0 0.0
2017-Dec-08 19:31N 50°49' W 001°06'0 0.4
2017-Dec-08 19:01N 50°49' W 001°06'510.4
2017-Dec-08 18:30N 50°44' W 001°03'815.9
2017-Dec-08 18:00N 50°37' W 000°58'1019.1
2017-Dec-08 17:30N 50°27' W 000°54'1618.5
2017-Dec-08 16:40N 50°12' W 000°48'318.3
2017-Dec-08 16:30N 50°10' W 000°46'918.5
2017-Dec-08 16:00N 50°01' W 000°41'918.8
2017-Dec-08 15:30N 49°53' W 000°35'918.5
2017-Dec-08 15:00N 49°44' W 000°29'917.7
2017-Dec-08 14:30N 49°36' W 000°24'816.9
2017-Dec-08 14:00N 49°28' W 000°18'816.0
2017-Dec-08 13:30N 49°21' W 000°15'3 6.7
2017-Dec-08 13:00N 49°17' W 000°15'0 0.0
2017-Dec-08 12:30N 49°17' W 000°15'0 0.0
2017-Dec-08 12:00N 49°17' W 000°15'0 0.0
2017-Dec-08 11:30N 49°17' W 000°15'0 0.0
2017-Dec-08 11:00N 49°17' W 000°15'0 0.0
2017-Dec-08 10:30N 49°17' W 000°15'0 0.0
2017-Dec-08 10:00N 49°17' W 000°15'0 0.1
2017-Dec-08 09:30N 49°17' W 000°15'0 0.0
2017-Dec-08 09:00N 49°17' W 000°15'0 0.1
2017-Dec-08 08:30N 49°17' W 000°15'0 0.0
2017-Dec-08 08:00N 49°17' W 000°15'0 0.0
2017-Dec-08 07:30N 49°17' W 000°15'0 0.0
2017-Dec-08 07:00N 49°17' W 000°15'0 0.0
2017-Dec-08 06:30N 49°17' W 000°15'2 3.7
2017-Dec-08 06:01N 49°19' W 000°15'714.5
2017-Dec-08 05:30N 49°26' W 000°17'713.4
2017-Dec-08 05:00N 49°32' W 000°21'713.4
2017-Dec-08 04:30N 49°39' W 000°25'713.2
2017-Dec-08 04:00N 49°45' W 000°29'713.2
2017-Dec-08 03:30N 49°51' W 000°32'713.8
2017-Dec-08 03:01N 49°58' W 000°36'714.4
2017-Dec-08 02:31N 50°04' W 000°39'1414.6
2017-Dec-08 01:31N 50°18' W 000°47'014.3
2017-Dec-08 01:30N 50°18' W 000°47'714.4
2017-Dec-08 01:00N 50°25' W 000°51'714.5
2017-Dec-08 00:31N 50°32' W 000°54'714.2
2017-Dec-08 00:00N 50°39' W 000°57'613.0
2017-Dec-07 23:30N 50°44' W 001°03'510.4
2017-Dec-07 23:00N 50°49' W 001°06'0 0.7
2017-Dec-07 22:30N 50°49' W 001°06'0 0.0
2017-Dec-07 22:00N 50°49' W 001°06'0 0.0
2017-Dec-07 21:31N 50°49' W 001°06'1 2.6
2017-Dec-07 21:00N 50°47' W 001°07'815.1
2017-Dec-07 20:30N 50°42' W 000°58'918.3
2017-Dec-07 20:00N 50°33' W 000°54'918.8
2017-Dec-07 19:30N 50°25' W 000°48'1018.7
2017-Dec-07 18:57N 50°15' W 000°44'819.2
2017-Dec-07 18:30N 50°07' W 000°39'1019.5
2017-Dec-07 18:00N 49°58' W 000°34'1019.5
2017-Dec-07 17:30N 49°49' W 000°27'1019.4
2017-Dec-07 17:00N 49°40' W 000°21'1019.5
2017-Dec-07 16:30N 49°31' W 000°16'1019.3
2017-Dec-07 16:00N 49°21' W 000°14'4 7.5
2017-Dec-07 15:30N 49°17' W 000°15'0 0.0
2017-Dec-07 15:00N 49°17' W 000°15'0 0.0
2017-Dec-07 14:30N 49°17' W 000°15'0 0.0
2017-Dec-07 14:00N 49°17' W 000°15'3 6.3
2017-Dec-07 13:31N 49°20' W 000°14'1019.8
2017-Dec-07 13:01N 49°29' W 000°21'1019.7
2017-Dec-07 12:31N 49°38' W 000°27'1119.5
2017-Dec-07 11:58N 49°48' W 000°33'919.5
2017-Dec-07 11:30N 49°57' W 000°38'1019.5
2017-Dec-07 11:01N 50°06' W 000°44'1618.6
2017-Dec-07 10:09N 50°20' W 000°53'318.1
2017-Dec-07 10:01N 50°23' W 000°55'917.6
2017-Dec-07 09:30N 50°32' W 000°56'917.6
2017-Dec-07 09:01N 50°40' W 000°58'816.0
2017-Dec-07 08:30N 50°47' W 001°06'2 4.2
2017-Dec-07 08:00N 50°49' W 001°06'0 0.0
2017-Dec-07 07:30N 50°49' W 001°06'0 0.0
2017-Dec-07 07:00N 50°49' W 001°06'1 1.3
2017-Dec-07 06:30N 50°49' W 001°07'613.0
2017-Dec-07 06:00N 50°43' W 001°01'816.4
2017-Dec-07 05:30N 50°36' W 000°55'815.1
2017-Dec-07 05:00N 50°28' W 000°53'510.8
2017-Dec-07 04:31N 50°23' W 000°50'1011.2
2017-Dec-07 03:38N 50°14' W 000°44'211.2
2017-Dec-07 03:29N 50°13' W 000°43'511.1
2017-Dec-07 03:01N 50°08' W 000°40'611.2
2017-Dec-07 02:31N 50°03' W 000°37'611.2
2017-Dec-07 02:01N 49°57' W 000°34'510.9
2017-Dec-07 01:31N 49°52' W 000°31'611.3
2017-Dec-07 01:01N 49°47' W 000°27'611.6
2017-Dec-07 00:31N 49°42' W 000°24'611.3
2017-Dec-07 00:01N 49°36' W 000°21'510.5
2017-Dec-06 23:31N 49°31' W 000°19'510.5
2017-Dec-06 23:01N 49°26' W 000°17'510.4
2017-Dec-06 22:31N 49°21' W 000°15'4 7.7
2017-Dec-06 22:01N 49°17' W 000°15'0 0.0
2017-Dec-06 21:31N 49°17' W 000°15'0 0.0
2017-Dec-06 21:01N 49°17' W 000°15'  
2017-Dec-04 10:30N 50°08' W 000°41'917.7
2017-Dec-04 10:00N 49°60' W 000°35'917.7
2017-Dec-04 09:31N 49°51' W 000°30'917.8
2017-Dec-04 09:00N 49°43' W 000°26'1019.9
2017-Dec-04 08:30N 49°34' W 000°20'1020.2
2017-Dec-04 08:00N 49°24' W 000°16'713.3
2017-Dec-04 07:30N 49°17' W 000°15'0 0.0
2017-Dec-04 07:00N 49°17' W 000°15'0 0.0
2017-Dec-04 06:30N 49°17' W 000°15'0 0.0
2017-Dec-04 06:00N 49°17' W 000°15'0 0.4
2017-Dec-04 05:30N 49°18' W 000°15'714.6
2017-Dec-04 05:01N 49°25' W 000°16'918.4
2017-Dec-04 04:31N 49°33' W 000°21'816.4
2017-Dec-04 04:00N 49°41' W 000°25'816.0
2017-Dec-04 03:31N 49°49' W 000°30'815.8
2017-Dec-04 03:01N 49°56' W 000°34'815.5
2017-Dec-04 02:31N 50°03' W 000°39'1815.8
2017-Dec-04 01:23N 50°20' W 000°49'616.2
2017-Dec-04 01:00N 50°25' W 000°51'815.6
2017-Dec-04 00:31N 50°33' W 000°55'815.5
2017-Dec-04 00:01N 50°40' W 001°00'714.1
2017-Dec-03 23:31N 50°46' W 001°06'3 5.1
2017-Dec-03 23:01N 50°49' W 001°06'0 0.0
2017-Dec-03 22:31N 50°49' W 001°06'0 0.0
2017-Dec-03 22:00N 50°49' W 001°06'0 0.0
2017-Dec-03 21:31N 50°49' W 001°06'0 0.6
2017-Dec-03 21:00N 50°49' W 001°06'611.6
2017-Dec-03 20:30N 50°43' W 001°02'1019.5
2017-Dec-03 20:00N 50°34' W 000°56'1019.5
2017-Dec-03 19:30N 50°26' W 000°50'1119.9
2017-Dec-03 18:58N 50°16' W 000°44'919.6
2017-Dec-03 18:30N 50°07' W 000°40'1019.5
2017-Dec-03 18:00N 49°57' W 000°36'918.2
2017-Dec-03 17:30N 49°49' W 000°32'918.1
2017-Dec-03 17:00N 49°40' W 000°27'918.4
2017-Dec-03 16:30N 49°32' W 000°21'918.7
2017-Dec-03 16:00N 49°23' W 000°16'611.8
2017-Dec-03 15:30N 49°17' W 000°15'0 0.1
2017-Dec-03 15:00N 49°17' W 000°15'0 0.0
2017-Dec-03 14:30N 49°17' W 000°15'0 0.0
2017-Dec-03 14:00N 49°17' W 000°15'611.5
2017-Dec-03 13:30N 49°23' W 000°15'1019.4
2017-Dec-03 13:00N 49°32' W 000°22'815.6
2017-Dec-03 12:30N 49°39' W 000°27'816.1
2017-Dec-03 12:01N 49°46' W 000°30'816.4
2017-Dec-03 11:31N 49°54' W 000°34'918.3
2017-Dec-03 11:00N 50°03' W 000°40'1019.8
2017-Dec-03 10:29N 50°13' W 000°45'1019.7
2017-Dec-03 10:00N 50°22' W 000°48'1020.1
2017-Dec-03 09:30N 50°31' W 000°54'1019.4
2017-Dec-03 09:01N 50°40' W 000°60'816.6
2017-Dec-03 08:30N 50°47' W 001°06'2 3.3
2017-Dec-03 08:01N 50°49' W 001°06'0 0.0
2017-Dec-03 07:30N 50°49' W 001°06'0 0.0
2017-Dec-03 07:00N 50°49' W 001°06'1 1.1
2017-Dec-03 06:30N 50°49' W 001°07'4 8.8
2017-Dec-03 06:00N 50°44' W 001°04'713.2
2017-Dec-03 05:30N 50°39' W 000°58'713.4
2017-Dec-03 05:00N 50°33' W 000°54'510.8
2017-Dec-03 04:30N 50°28' W 000°52'611.1
2017-Dec-03 03:59N 50°22' W 000°49'811.2
2017-Dec-03 03:14N 50°14' W 000°45'311.2
2017-Dec-03 02:57N 50°11' W 000°44'511.1
2017-Dec-03 02:30N 50°06' W 000°43'511.0
2017-Dec-03 02:00N 50°01' W 000°41'611.9
2017-Dec-03 01:30N 49°55' W 000°38'612.0
2017-Dec-03 01:00N 49°50' W 000°35'612.5
2017-Dec-03 00:30N 49°44' W 000°31'612.7
2017-Dec-03 00:00N 49°38' W 000°28'612.4
2017-Dec-02 23:30N 49°33' W 000°23'611.9
2017-Dec-02 23:00N 49°27' W 000°19'611.8
2017-Dec-02 22:30N 49°22' W 000°15'4 9.0
2017-Dec-02 22:00N 49°17' W 000°15'0 0.0
2017-Dec-02 21:30N 49°17' W 000°15'0 0.0
2017-Dec-02 21:00N 49°17' W 000°15'0 0.0
2017-Dec-02 20:30N 49°17' W 000°15'4 7.7
2017-Dec-02 20:01N 49°21' W 000°14'917.5
2017-Dec-02 19:30N 49°30' W 000°18'816.3
2017-Dec-02 19:01N 49°37' W 000°23'816.8
2017-Dec-02 18:30N 49°45' W 000°28'917.5
2017-Dec-02 18:01N 49°53' W 000°33'918.1
2017-Dec-02 17:30N 50°01' W 000°38'1917.5
2017-Dec-02 16:27N 50°19' W 000°48'819.4
2017-Dec-02 16:01N 50°27' W 000°52'1019.3
2017-Dec-02 15:31N 50°36' W 000°56'917.4
2017-Dec-02 15:01N 50°44' W 001°03'510.5
2017-Dec-02 14:31N 50°49' W 001°06'0 0.0
2017-Dec-02 14:00N 50°49' W 001°06'0 0.0
2017-Dec-02 13:30N 50°49' W 001°06'1 1.2
2017-Dec-02 13:01N 50°48' W 001°07'713.9
2017-Dec-02 12:31N 50°42' W 001°02'815.7
2017-Dec-02 12:00N 50°35' W 000°58'916.8
2017-Dec-02 11:30N 50°27' W 000°54'917.6
2017-Dec-02 11:00N 50°20' W 000°46'917.6
2017-Dec-02 10:30N 50°12' W 000°41'1019.1
2017-Dec-02 10:00N 50°03' W 000°35'918.8
2017-Dec-02 09:30N 49°54' W 000°31'918.8
2017-Dec-02 09:00N 49°45' W 000°26'918.7
2017-Dec-02 08:30N 49°36' W 000°23'918.8
2017-Dec-02 08:00N 49°27' W 000°18'918.0
2017-Dec-02 07:31N 49°18' W 000°15'1 1.6
2017-Dec-02 07:00N 49°17' W 000°15'0 0.0
2017-Dec-02 06:30N 49°17' W 000°15'0 0.0
2017-Dec-02 06:00N 49°17' W 000°15'0 0.1
2017-Dec-02 05:30N 49°17' W 000°15'714.7
2017-Dec-02 05:00N 49°25' W 000°17'816.7
2017-Dec-02 04:30N 49°32' W 000°22'816.4
2017-Dec-02 04:00N 49°40' W 000°26'815.3
2017-Dec-02 03:31N 49°47' W 000°31'612.0
2017-Dec-02 03:00N 49°52' W 000°35'611.5
2017-Dec-02 02:31N 49°57' W 000°39'611.2
2017-Dec-02 02:00N 50°02' W 000°43'2212.3
2017-Dec-02 00:14N 50°23' W 000°53'416.0
2017-Dec-02 00:00N 50°27' W 000°55'815.4
2017-Dec-01 23:30N 50°34' W 000°57'815.4
2017-Dec-01 23:01N 50°42' W 000°58'612.4
2017-Dec-01 22:30N 50°46' W 001°06'3 5.1
2017-Dec-01 22:00N 50°49' W 001°06'0 0.0
2017-Dec-01 21:30N 50°49' W 001°06'0 0.0
2017-Dec-01 21:00N 50°49' W 001°06'0 0.0
2017-Dec-01 20:30N 50°49' W 001°06'0 0.0
2017-Dec-01 20:00N 50°49' W 001°06'0 0.0
2017-Dec-01 19:30N 50°49' W 001°06'0 0.6
2017-Dec-01 19:00N 50°49' W 001°06'510.5
2017-Dec-01 18:31N 50°44' W 001°03'816.8
2017-Dec-01 18:01N 50°36' W 000°58'815.7
2017-Dec-01 17:30N 50°29' W 000°54'  

Dump ship's entire track history